Time;durP1;ratioP1;P1;durP2;ratioP2;P2;SDS_P1;SDS_P2;PMS_P1;PMS_P2;Temp;Humidity;BMP_temperature;BMP_pressure;BME280_temperature;BME280_humidity;BME280_pressure;Samples;Min_cycle;Max_cycle;Signal;HPM_P1;HPM_P2
2023/04/08 00:01:27;;;;;;;21.73;11.77;;;;;;;7.52;95.84;102136.63;4960817;28;20046;-80
2023/04/08 00:03:53;;;;;;;21.58;11.35;;;;;;;7.50;95.84;102141.78;4937107;28;20027;-80
2023/04/08 00:06:18;;;;;;;19.27;11.23;;;;;;;7.52;96.00;102141.78;4948565;28;20051;-81
2023/04/08 00:08:44;;;;;;;22.17;12.27;;;;;;;7.52;96.05;102141.78;4953958;28;20082;-80
2023/04/08 00:11:09;;;;;;;18.63;10.30;;;;;;;7.54;95.99;102140.09;4943443;28;20696;-82
2023/04/08 00:13:35;;;;;;;21.08;11.68;;;;;;;7.53;96.31;102144.41;4946592;28;20501;-80
2023/04/08 00:16:00;;;;;;;20.48;11.65;;;;;;;7.53;96.39;102134.06;4945806;28;20038;-84
2023/04/08 00:18:26;;;;;;;19.52;11.45;;;;;;;7.56;96.37;102138.38;4945252;28;20382;-82
2023/04/08 00:20:52;;;;;;;22.67;11.93;;;;;;;7.56;96.34;102140.97;4947782;28;20029;-81
2023/04/08 00:23:18;;;;;;;25.30;12.50;;;;;;;7.56;96.69;102133.19;4944633;28;20460;-83
2023/04/08 00:25:44;;;;;;;18.50;11.25;;;;;;;7.57;96.57;102140.13;4946803;28;20035;-79
2023/04/08 00:28:09;;;;;;;20.05;12.23;;;;;;;7.56;96.91;102140.97;4954745;28;20304;-80
2023/04/08 00:30:35;;;;;;;21.67;12.63;;;;;;;7.53;96.98;102138.34;4957786;28;20035;-79
2023/04/08 00:33:00;;;;;;;22.77;12.15;;;;;;;7.54;96.98;102145.25;4949665;28;20531;-81
2023/04/08 00:35:26;;;;;;;20.27;11.40;;;;;;;7.53;97.16;102140.94;4947835;28;20545;-81
2023/04/08 00:37:51;;;;;;;18.70;11.90;;;;;;;7.53;97.33;102143.53;4953453;28;20023;-80
2023/04/08 00:40:16;;;;;;;22.63;12.70;;;;;;;7.52;97.27;102139.19;4950202;28;20484;-82
2023/04/08 00:42:42;;;;;;;23.35;12.40;;;;;;;7.51;97.28;102146.13;4951704;28;20115;-80
2023/04/08 00:45:07;;;;;;;21.67;11.93;;;;;;;7.51;97.12;102147.84;4950705;28;20035;-81
2023/04/08 00:47:35;;;;;;;24.35;12.50;;;;;;;7.51;97.58;102140.09;4942379;28;20115;-80
2023/04/08 00:50:00;;;;;;;20.55;12.02;;;;;;;7.50;97.40;102149.56;4951101;28;20039;-82
2023/04/08 00:52:25;;;;;;;22.88;12.07;;;;;;;7.51;97.45;102142.69;4950741;28;20034;-83
2023/04/08 00:54:51;;;;;;;21.40;12.13;;;;;;;7.50;97.53;102143.53;4953361;28;20027;-80
2023/04/08 00:57:16;;;;;;;24.15;12.95;;;;;;;7.50;97.35;102143.53;4953986;28;20038;-80
2023/04/08 00:59:42;;;;;;;24.50;12.35;;;;;;;7.50;97.70;102154.75;4948452;28;20027;-81
2023/04/08 01:02:35;;;;;;;23.45;12.68;;;;;;;7.50;98.02;102151.28;4952559;28;20031;-82
2023/04/08 01:05:08;;;;;;;23.33;12.25;;;;;;;7.51;97.77;102150.44;4949707;28;20058;-84
2023/04/08 01:07:36;;;;;;;21.42;11.80;;;;;;;7.52;97.19;102149.56;4954388;28;20106;-80
2023/04/08 01:10:13;;;;;;;23.13;12.77;;;;;;;7.53;97.47;102159.06;4969170;28;20039;-80
2023/04/08 01:12:56;;;;;;;23.67;13.20;;;;;;;7.52;97.67;102150.44;4951573;28;20450;-78
2023/04/08 01:15:23;;;;;;;25.00;13.05;;;;;;;7.53;97.24;102148.72;4947283;28;20031;-78
2023/04/08 01:17:53;;;;;;;22.35;12.77;;;;;;;7.53;97.61;102154.78;4946999;28;20078;-78
2023/04/08 01:20:19;;;;;;;23.85;13.38;;;;;;;7.52;97.59;102146.97;4949920;28;20035;-78
2023/04/08 01:22:59;;;;;;;26.10;13.18;;;;;;;7.55;97.85;102154.78;4945550;28;20038;-78
2023/04/08 01:25:33;;;;;;;25.83;13.60;;;;;;;7.55;98.00;102152.19;4949179;28;20479;-78
2023/04/08 01:28:14;;;;;;;24.70;13.43;;;;;;;7.55;98.06;102150.47;4942591;28;20122;-78
2023/04/08 01:30:41;;;;;;;25.27;13.32;;;;;;;7.57;97.78;102153.06;4952989;28;20059;-78
2023/04/08 01:33:10;;;;;;;21.90;13.52;;;;;;;7.56;98.21;102153.91;4952978;28;20023;-78
2023/04/08 01:35:36;;;;;;;22.20;12.60;;;;;;;7.56;98.07;102162.56;4952199;28;20074;-79
2023/04/08 01:38:02;;;;;;;24.75;13.38;;;;;;;7.57;98.04;102161.72;4946011;28;20515;-78
2023/04/08 01:40:28;;;;;;;23.60;12.73;;;;;;;7.57;98.11;102159.13;4950754;28;20034;-78
2023/04/08 01:42:55;;;;;;;24.50;13.30;;;;;;;7.57;98.20;102160.84;4945484;28;20023;-78
2023/04/08 01:45:22;;;;;;;25.15;13.27;;;;;;;7.59;98.45;102167.78;4948466;28;20030;-78
2023/04/08 01:47:48;;;;;;;23.67;12.90;;;;;;;7.59;98.12;102169.47;4950465;28;20086;-78
2023/04/08 01:50:15;;;;;;;26.48;13.75;;;;;;;7.60;98.11;102168.63;4961561;28;20031;-78
2023/04/08 01:52:43;;;;;;;23.52;13.32;;;;;;;7.60;98.36;102166.03;4950810;28;20039;-79
2023/04/08 01:55:09;;;;;;;24.80;13.10;;;;;;;7.62;98.09;102171.22;4950334;28;20542;-78
2023/04/08 01:57:36;;;;;;;23.55;13.30;;;;;;;7.61;98.32;102170.38;4942720;28;20035;-78
2023/04/08 02:00:06;;;;;;;25.40;13.73;;;;;;;7.63;98.22;102167.78;4946110;28;20257;-79
2023/04/08 02:02:33;;;;;;;23.35;12.95;;;;;;;7.63;98.00;102173.84;4948537;28;20019;-78
2023/04/08 02:04:59;;;;;;;22.20;12.65;;;;;;;7.64;98.06;102169.50;4952577;28;20058;-78
2023/04/08 02:07:24;;;;;;;24.67;13.90;;;;;;;7.63;98.02;102178.13;4957455;28;20391;-78
2023/04/08 02:09:50;;;;;;;23.85;13.10;;;;;;;7.62;97.82;102174.69;4952752;28;20042;-78
2023/04/08 02:12:15;;;;;;;25.10;13.40;;;;;;;7.63;97.83;102173.84;4950069;28;20066;-78
2023/04/08 02:14:41;;;;;;;25.02;14.00;;;;;;;7.64;97.80;102182.47;4949870;28;20110;-78
2023/04/08 02:17:17;;;;;;;26.08;13.32;;;;;;;7.62;97.68;102174.69;4949886;28;20038;-78
2023/04/08 02:19:48;;;;;;;23.60;13.38;;;;;;;7.63;97.93;102171.25;4947470;28;20555;-79
2023/04/08 02:22:23;;;;;;;22.40;13.03;;;;;;;7.65;97.71;102179.03;4945508;28;20069;-78
2023/04/08 02:24:49;;;;;;;25.98;13.30;;;;;;;7.65;97.45;102176.44;4941756;28;20034;-78
2023/04/08 02:27:17;;;;;;;23.00;13.15;;;;;;;7.63;97.32;102176.44;4950687;28;20032;-78
2023/04/08 02:29:44;;;;;;;23.80;13.25;;;;;;;7.62;97.05;102177.28;4949286;28;20027;-78
2023/04/08 02:32:11;;;;;;;26.58;13.88;;;;;;;7.58;97.44;102175.53;4952136;28;20383;-79
2023/04/08 02:34:39;;;;;;;24.95;13.65;;;;;;;7.56;97.46;102179.81;4951130;28;20038;-78
2023/04/08 02:37:04;;;;;;;25.80;14.02;;;;;;;7.53;97.32;102180.66;4947526;28;20031;-78
2023/04/08 02:39:31;;;;;;;23.85;13.23;;;;;;;7.52;97.68;102175.47;4950454;28;20074;-79
2023/04/08 02:41:57;;;;;;;26.83;13.57;;;;;;;7.50;97.89;102169.44;4950989;28;20034;-78
2023/04/08 02:44:22;;;;;;;24.08;13.35;;;;;;;7.47;97.67;102182.34;4946290;28;20023;-78
2023/04/08 02:46:47;;;;;;;24.33;12.88;;;;;;;7.43;97.91;102178.81;4941836;28;20058;-78
2023/04/08 02:49:13;;;;;;;25.30;13.77;;;;;;;7.41;97.64;102176.25;4948168;28;20414;-78
2023/04/08 02:51:38;;;;;;;24.48;13.45;;;;;;;7.39;97.59;102177.09;4945541;28;20455;-78
2023/04/08 02:54:04;;;;;;;24.08;13.65;;;;;;;7.36;97.22;102177.91;4941568;28;20031;-77
2023/04/08 02:56:29;;;;;;;25.67;13.00;;;;;;;7.33;96.95;102184.78;4949561;28;20128;-79
2023/04/08 02:58:55;;;;;;;22.30;12.75;;;;;;;7.30;97.37;102188.22;4940564;28;20028;-78
2023/04/08 03:01:20;;;;;;;25.25;13.45;;;;;;;7.29;97.69;102189.09;4942087;28;20024;-78
2023/04/08 03:03:45;;;;;;;23.58;12.98;;;;;;;7.26;97.94;102186.47;4942492;28;20036;-78
2023/04/08 03:06:10;;;;;;;26.45;13.50;;;;;;;7.22;98.00;102180.38;4944455;28;20383;-79
2023/04/08 03:08:36;;;;;;;24.67;12.80;;;;;;;7.22;98.00;102182.09;4950617;28;20027;-78
2023/04/08 03:11:01;;;;;;;22.52;13.07;;;;;;;7.17;97.58;102191.56;4942185;28;20499;-78
2023/04/08 03:13:28;;;;;;;23.38;12.43;;;;;;;7.14;97.35;102187.19;4945055;28;20076;-78
2023/04/08 03:15:53;;;;;;;20.83;11.43;;;;;;;7.10;97.09;102186.31;4942636;28;20038;-78
2023/04/08 03:18:19;;;;;;;20.35;11.23;;;;;;;7.07;96.98;102188.84;4941200;28;20035;-78
2023/04/08 03:20:44;;;;;;;19.50;11.02;;;;;;;7.06;97.15;102181.94;4946944;28;20046;-78
2023/04/08 03:23:10;;;;;;;17.80;10.43;;;;;;;7.06;97.29;102189.69;4950812;28;20183;-79
2023/04/08 03:25:35;;;;;;;19.88;10.55;;;;;;;7.04;96.82;102186.22;4949425;28;20399;-78
2023/04/08 03:28:00;;;;;;;18.48;10.88;;;;;;;7.02;96.97;102181.91;4948354;28;20030;-79
2023/04/08 03:30:25;;;;;;;22.25;12.32;;;;;;;7.03;97.23;102181.03;4949254;28;20091;-78
2023/04/08 03:32:51;;;;;;;21.92;12.00;;;;;;;7.05;97.35;102182.78;4953699;28;20027;-79
2023/04/08 03:35:16;;;;;;;22.05;11.85;;;;;;;7.04;97.42;102178.47;4949909;28;20047;-78
2023/04/08 03:37:41;;;;;;;22.35;12.27;;;;;;;7.02;96.98;102187.94;4947345;28;20106;-78
2023/04/08 03:40:07;;;;;;;21.20;11.68;;;;;;;6.98;96.95;102186.19;4948162;28;20031;-78
2023/04/08 03:42:33;;;;;;;22.17;12.40;;;;;;;6.94;96.95;102194.75;4949283;28;20118;-78
2023/04/08 03:44:59;;;;;;;20.08;11.70;;;;;;;6.92;96.78;102191.28;4955948;28;20034;-78
2023/04/08 03:47:24;;;;;;;21.48;11.65;;;;;;;6.90;97.18;102188.69;4939849;28;20131;-78
2023/04/08 03:49:52;;;;;;;19.13;11.20;;;;;;;6.92;97.29;102199.03;4954871;28;20022;-78
2023/04/08 03:52:17;;;;;;;20.45;11.25;;;;;;;6.91;96.74;102194.72;4955984;28;20126;-79
2023/04/08 03:54:42;;;;;;;18.10;10.82;;;;;;;6.90;96.70;102205.91;4951350;28;20130;-79
2023/04/08 03:57:08;;;;;;;16.30;9.48;;;;;;;6.87;96.74;102203.28;4951163;28;20035;-78
2023/04/08 03:59:35;;;;;;;17.33;9.98;;;;;;;6.86;96.79;102202.44;4951040;28;20031;-78
2023/04/08 04:02:00;;;;;;;15.57;8.93;;;;;;;6.84;96.77;102202.38;4947187;28;20027;-78
2023/04/08 04:04:25;;;;;;;16.02;9.20;;;;;;;6.84;96.84;102198.94;4952068;28;20494;-79
2023/04/08 04:06:51;;;;;;;14.90;8.68;;;;;;;6.82;96.71;102201.53;4951666;28;20870;-79
2023/04/08 04:09:16;;;;;;;17.85;9.00;;;;;;;6.83;97.37;102207.56;4950241;28;20057;-78
2023/04/08 04:11:41;;;;;;;18.27;10.15;;;;;;;6.82;97.21;102206.72;4951867;28;20034;-79
2023/04/08 04:14:07;;;;;;;19.88;10.00;;;;;;;6.84;97.39;102206.72;4950785;28;20040;-78
2023/04/08 04:16:32;;;;;;;20.00;11.15;;;;;;;6.85;97.56;102208.44;4949040;28;20027;-79
2023/04/08 04:18:57;;;;;;;18.80;10.45;;;;;;;6.87;97.28;102213.63;4943101;28;20031;-78
2023/04/08 04:21:23;;;;;;;17.00;9.55;;;;;;;6.86;97.51;102211.88;4948043;28;20031;-79
2023/04/08 04:23:48;;;;;;;19.27;10.30;;;;;;;6.88;97.33;102217.94;4948597;28;20047;-78
2023/04/08 04:26:14;;;;;;;20.02;10.27;;;;;;;6.88;97.47;102223.13;4959943;28;20034;-79
2023/04/08 04:28:39;;;;;;;18.92;10.25;;;;;;;6.88;97.34;102220.53;4948860;28;20545;-78
2023/04/08 04:31:04;;;;;;;19.35;11.00;;;;;;;6.89;97.85;102230.03;4946100;28;20031;-79
2023/04/08 04:33:30;;;;;;;19.77;11.18;;;;;;;6.89;97.86;102228.34;4948682;28;20065;-78
2023/04/08 04:35:55;;;;;;;21.85;11.52;;;;;;;6.90;98.01;102237.84;4950394;28;20082;-78
2023/04/08 04:38:21;;;;;;;21.40;11.00;;;;;;;6.91;98.43;102237.00;4943913;28;20035;-78
2023/04/08 04:40:46;;;;;;;21.85;11.73;;;;;;;6.91;98.18;102238.69;4949680;28;20027;-79
2023/04/08 04:43:11;;;;;;;24.65;11.75;;;;;;;6.89;98.24;102243.88;4949697;28;20039;-78
2023/04/08 04:45:37;;;;;;;23.83;12.20;;;;;;;6.89;98.24;102243.88;4950333;28;20067;-78
2023/04/08 04:48:02;;;;;;;24.38;12.60;;;;;;;6.88;98.71;102241.25;4951265;28;20467;-78
2023/04/08 04:50:27;;;;;;;23.63;12.13;;;;;;;6.89;98.85;102248.16;4947293;28;20043;-78
2023/04/08 04:52:53;;;;;;;25.10;12.98;;;;;;;6.90;98.83;102249.88;4951017;28;20035;-78
2023/04/08 04:55:18;;;;;;;24.83;12.98;;;;;;;6.92;98.93;102255.97;4951550;28;20035;-78
2023/04/08 04:57:43;;;;;;;24.98;12.75;;;;;;;6.94;98.61;102251.66;4948503;28;20047;-78
2023/04/08 05:00:09;;;;;;;25.58;13.02;;;;;;;6.96;98.58;102252.56;4952811;28;20102;-78
2023/04/08 05:02:35;;;;;;;23.48;12.70;;;;;;;6.96;98.47;102250.81;4952415;28;20035;-79
2023/04/08 05:05:00;;;;;;;25.10;13.05;;;;;;;6.99;98.60;102257.78;4951155;28;20055;-79
2023/04/08 05:07:25;;;;;;;28.67;14.02;;;;;;;7.01;98.44;102260.38;4945669;28;20023;-79
2023/04/08 05:09:51;;;;;;;25.02;13.57;;;;;;;7.02;98.48;102260.38;4944950;28;20074;-79
2023/04/08 05:12:16;;;;;;;24.67;13.20;;;;;;;7.03;98.32;102264.69;4951912;28;20102;-79
2023/04/08 05:14:42;;;;;;;25.48;13.75;;;;;;;7.04;98.35;102269.03;4945812;28;20383;-79
2023/04/08 05:17:07;;;;;;;24.20;13.30;;;;;;;7.05;98.82;102272.50;4944486;28;20031;-79
2023/04/08 05:19:32;;;;;;;22.42;12.38;;;;;;;7.07;98.30;102270.81;4943876;28;21002;-79
2023/04/08 05:21:58;;;;;;;22.88;12.43;;;;;;;7.07;97.85;102273.41;4944642;28;20034;-78
2023/04/08 05:24:23;;;;;;;21.45;11.57;;;;;;;7.07;97.81;102274.25;4952021;28;20031;-78
2023/04/08 05:26:51;;;;;;;22.55;12.20;;;;;;;7.07;97.67;102279.44;4946040;28;20019;-78
2023/04/08 05:29:17;;;;;;;21.83;11.82;;;;;;;7.06;97.46;102275.09;4953274;28;20364;-78
2023/04/08 05:31:43;;;;;;;24.08;12.40;;;;;;;7.07;97.98;102274.25;4954658;28;20030;-78
2023/04/08 05:34:09;;;;;;;22.45;12.23;;;;;;;7.10;97.71;102276.88;4950946;28;20027;-78
2023/04/08 05:36:34;;;;;;;22.35;12.23;;;;;;;7.13;97.93;102279.50;4947456;28;20035;-79
2023/04/08 05:38:59;;;;;;;22.20;11.55;;;;;;;7.18;97.69;102273.50;4951404;28;20475;-79
2023/04/08 05:41:25;;;;;;;21.20;11.90;;;;;;;7.20;97.22;102285.63;4946630;28;20147;-79
2023/04/08 05:43:50;;;;;;;23.67;12.10;;;;;;;7.20;97.26;102284.75;4952727;28;20022;-79
2023/04/08 05:46:16;;;;;;;22.60;12.57;;;;;;;7.23;97.31;102289.97;4958321;28;20043;-79
2023/04/08 05:48:41;;;;;;;21.60;11.88;;;;;;;7.26;97.00;102292.59;4955945;28;20110;-79
2023/04/08 05:51:12;;;;;;;21.98;12.00;;;;;;;7.28;96.90;102285.72;4951708;28;20035;-79
2023/04/08 05:53:37;;;;;;;24.25;12.93;;;;;;;7.30;96.73;102291.78;4958482;28;20035;-79
2023/04/08 05:56:03;;;;;;;22.77;13.48;;;;;;;7.29;95.99;102290.03;4953766;28;20023;-79
2023/04/08 05:58:28;;;;;;;23.70;12.45;;;;;;;7.29;96.19;102297.81;4951671;28;20027;-79
2023/04/08 06:00:54;;;;;;;21.90;11.95;;;;;;;7.28;96.04;102296.06;4960209;28;20027;-79
2023/04/08 06:03:19;;;;;;;22.90;12.07;;;;;;;7.30;96.35;102302.13;4941968;28;20039;-79
2023/04/08 06:05:45;;;;;;;20.27;12.23;;;;;;;7.32;96.03;102308.19;4949718;28;20050;-79
2023/04/08 06:08:10;;;;;;;25.48;12.77;;;;;;;7.30;95.78;102307.31;4947115;28;20675;-79
2023/04/08 06:10:35;;;;;;;20.45;11.57;;;;;;;7.29;95.88;102309.00;4948407;28;20100;-79
2023/04/08 06:13:00;;;;;;;23.20;12.32;;;;;;;7.30;95.84;102315.06;4950772;28;20470;-79
2023/04/08 06:15:26;;;;;;;22.35;12.65;;;;;;;7.32;95.84;102305.63;4951035;28;20028;-79
2023/04/08 06:17:52;;;;;;;21.13;11.77;;;;;;;7.34;95.91;102303.91;4949979;28;20379;-79
2023/04/08 06:20:17;;;;;;;23.48;12.75;;;;;;;7.36;95.81;102315.13;4949679;28;20030;-79
2023/04/08 06:22:42;;;;;;;22.88;12.60;;;;;;;7.37;95.97;102319.47;4948922;28;20031;-78
2023/04/08 06:25:08;;;;;;;21.65;12.13;;;;;;;7.39;95.97;102317.75;4946079;28;20027;-78
2023/04/08 06:27:33;;;;;;;22.25;11.82;;;;;;;7.40;95.54;102316.91;4948127;28;20372;-79
2023/04/08 06:29:58;;;;;;;24.55;12.30;;;;;;;7.42;95.64;102314.34;4949895;28;20482;-79
2023/04/08 06:32:24;;;;;;;22.77;12.20;;;;;;;7.42;95.53;102315.22;4951741;28;20058;-79
2023/04/08 06:34:49;;;;;;;22.38;12.65;;;;;;;7.44;95.49;102320.38;4948072;28;20134;-79
2023/04/08 06:37:14;;;;;;;24.05;12.90;;;;;;;7.44;95.52;102326.47;4940668;28;20469;-79
2023/04/08 06:39:40;;;;;;;22.05;12.57;;;;;;;7.49;95.83;102330.81;4948782;28;20078;-79
2023/04/08 06:42:05;;;;;;;22.63;12.32;;;;;;;7.51;95.53;102326.53;4948519;28;20479;-79
2023/04/08 06:44:31;;;;;;;23.70;13.07;;;;;;;7.54;95.64;102326.53;4941443;28;20106;-79
2023/04/08 06:46:56;;;;;;;22.02;12.32;;;;;;;7.57;95.40;102336.94;4932244;28;20118;-79
2023/04/08 06:49:22;;;;;;;24.60;12.75;;;;;;;7.58;94.96;102338.69;4938875;28;20031;-79
2023/04/08 06:51:47;;;;;;;23.58;12.75;;;;;;;7.58;94.74;102341.28;4946718;28;22302;-79
2023/04/08 06:54:13;;;;;;;23.25;13.10;;;;;;;7.59;94.88;102340.41;4945360;28;20023;-79
2023/04/08 06:56:38;;;;;;;23.58;12.57;;;;;;;7.61;94.30;102349.09;4939823;28;20454;-79
2023/04/08 06:59:03;;;;;;;23.52;13.27;;;;;;;7.59;94.08;102348.19;4931006;28;20035;-79
2023/04/08 07:01:29;;;;;;;23.15;13.27;;;;;;;7.62;94.21;102360.28;4931933;28;20032;-79
2023/04/08 07:03:55;;;;;;;24.02;12.68;;;;;;;7.65;94.36;102356.03;4938176;28;20045;-79
2023/04/08 07:06:20;;;;;;;21.50;12.55;;;;;;;7.68;94.48;102361.25;4946908;28;20035;-79
2023/04/08 07:08:46;;;;;;;22.20;13.07;;;;;;;7.70;94.75;102364.72;4951066;28;20035;-79
2023/04/08 07:11:11;;;;;;;23.33;13.07;;;;;;;7.72;94.51;102370.78;4939530;28;20054;-78
2023/04/08 07:13:36;;;;;;;26.38;13.73;;;;;;;7.72;94.49;102363.00;4948357;28;20098;-79
2023/04/08 07:16:02;;;;;;;23.38;13.50;;;;;;;7.74;94.37;102376.84;4944808;28;20030;-78
2023/04/08 07:18:27;;;;;;;24.00;13.48;;;;;;;7.76;94.41;102374.28;4935685;28;20066;-79
2023/04/08 07:26:06;;;;;;;23.92;13.00;;;;;;;7.77;94.05;102380.34;5669792;23;21343;31
2023/04/08 07:28:32;;;;;;;28.50;14.13;;;;;;;7.77;93.74;102382.91;4952064;28;20043;-75
2023/04/08 07:31:08;;;;;;;26.63;13.65;;;;;;;7.79;93.71;102389.00;4953177;28;20023;-76
2023/04/08 07:33:33;;;;;;;24.10;13.13;;;;;;;7.81;93.64;102389.88;4950012;28;20035;-76
2023/04/08 07:35:59;;;;;;;26.30;14.13;;;;;;;7.82;93.54;102394.22;4951558;28;20109;-76
2023/04/08 07:38:24;;;;;;;26.77;14.13;;;;;;;7.80;93.93;102394.19;4950212;28;20030;-76
2023/04/08 07:40:50;;;;;;;26.40;13.50;;;;;;;7.82;94.44;102394.22;4951037;28;20038;-76
2023/04/08 07:43:15;;;;;;;25.77;13.55;;;;;;;7.83;94.49;102402.00;4953166;28;20118;-76
2023/04/08 07:45:41;;;;;;;26.23;13.85;;;;;;;7.85;94.31;102400.28;4947895;28;20102;-75
2023/04/08 07:48:06;;;;;;;26.27;13.52;;;;;;;7.86;94.07;102399.44;4949820;28;20385;-75
2023/04/08 07:50:31;;;;;;;25.83;13.90;;;;;;;7.87;93.93;102405.47;4945122;28;20093;-76
2023/04/08 07:52:56;;;;;;;27.35;14.00;;;;;;;7.89;94.14;102403.78;4949259;28;20038;-76
2023/04/08 07:55:22;;;;;;;25.20;12.40;;;;;;;7.94;93.86;102406.44;4935714;28;20081;-75
2023/04/08 07:57:47;;;;;;;21.95;12.20;;;;;;;7.96;94.01;102410.78;4950578;28;20031;-76
2023/04/08 08:00:19;;;;;;;23.98;12.70;;;;;;;8.01;93.43;102410.81;4947665;28;20046;-75
2023/04/08 08:02:44;;;;;;;24.65;12.75;;;;;;;8.03;92.97;102412.56;4947296;28;20031;-76
2023/04/08 08:05:10;;;;;;;24.05;12.57;;;;;;;8.00;93.05;102409.97;4945162;28;20049;-76
2023/04/08 08:07:35;;;;;;;27.80;13.45;;;;;;;8.02;92.93;102417.75;4946100;28;20019;-75
2023/04/08 08:10:00;;;;;;;25.17;13.10;;;;;;;8.00;92.88;102415.16;4940526;28;20471;-76
2023/04/08 08:12:25;;;;;;;22.95;12.68;;;;;;;8.00;92.74;102420.31;4947434;28;20030;-76
2023/04/08 08:14:53;;;;;;;20.75;11.63;;;;;;;8.00;92.74;102412.56;4951272;28;20019;-76
2023/04/08 08:17:19;;;;;;;22.70;12.68;;;;;;;8.01;92.23;102418.59;4939878;28;20023;-75
2023/04/08 08:19:44;;;;;;;23.13;13.05;;;;;;;8.03;92.68;102429.84;4955477;28;20145;-76
2023/04/08 08:22:10;;;;;;;19.10;10.93;;;;;;;8.00;92.17;102424.63;4955136;28;20054;-75
2023/04/08 08:24:36;;;;;;;22.75;12.77;;;;;;;7.96;92.29;102423.72;4956947;28;20434;-76
2023/04/08 08:27:03;;;;;;;19.30;11.63;;;;;;;7.97;92.57;102425.47;4952952;28;21638;-75
2023/04/08 08:29:29;;;;;;;19.33;11.40;;;;;;;8.02;92.37;102433.28;4955366;28;20186;-75
2023/04/08 08:31:54;;;;;;;20.67;11.93;;;;;;;8.03;91.73;102435.88;4964898;28;20023;-76
2023/04/08 08:34:19;;;;;;;20.00;11.48;;;;;;;8.07;91.53;102438.50;4956301;28;20541;-75
2023/04/08 08:36:45;;;;;;;18.35;10.57;;;;;;;8.09;92.03;102434.22;4957809;28;20035;-75
2023/04/08 08:39:10;;;;;;;19.00;11.00;;;;;;;8.13;91.96;102438.59;4954769;28;20090;-75
2023/04/08 08:41:36;;;;;;;18.42;11.23;;;;;;;8.15;92.28;102444.66;4957340;28;20073;-75
2023/04/08 08:44:04;;;;;;;17.58;10.85;;;;;;;8.16;91.84;102449.00;4953242;28;20561;-75
2023/04/08 08:46:29;;;;;;;20.45;10.70;;;;;;;8.24;91.78;102446.47;4960722;28;20030;-75
2023/04/08 08:48:55;;;;;;;18.38;11.63;;;;;;;8.27;91.05;102456.88;4957552;28;20019;-75
2023/04/08 08:51:21;;;;;;;16.33;10.70;;;;;;;8.30;90.79;102460.38;4955844;28;20030;-75
2023/04/08 08:53:46;;;;;;;18.55;11.43;;;;;;;8.33;90.84;102456.94;4954303;28;20039;-75
2023/04/08 08:56:12;;;;;;;17.20;10.77;;;;;;;8.37;90.76;102465.63;4952959;28;20118;-76
2023/04/08 08:58:38;;;;;;;17.42;11.20;;;;;;;8.43;90.76;102465.66;4956984;28;20038;-76
2023/04/08 09:01:40;;;;;;;16.95;11.35;;;;;;;8.50;90.52;102454.53;4956206;28;20027;-76
2023/04/08 09:04:14;;;;;;;17.60;11.43;;;;;;;8.50;89.86;102460.59;4950875;28;20023;-76
2023/04/08 09:06:39;;;;;;;17.60;11.13;;;;;;;8.54;89.65;102458.88;4955350;28;20030;-76
2023/04/08 09:09:09;;;;;;;16.65;11.15;;;;;;;8.63;90.61;102458.09;4954847;28;20024;-76
2023/04/08 09:11:34;;;;;;;15.50;10.40;;;;;;;8.69;89.42;102467.69;4955263;28;20529;-76
2023/04/08 09:13:59;;;;;;;16.08;11.20;;;;;;;8.71;89.60;102461.63;4955982;28;20127;-76
2023/04/08 09:16:25;;;;;;;17.05;11.10;;;;;;;8.77;89.09;102466.00;4956403;28;20023;-76
2023/04/08 09:18:51;;;;;;;16.88;11.10;;;;;;;8.78;88.39;102462.53;4949239;28;20027;-75
2023/04/08 09:21:17;;;;;;;18.25;11.43;;;;;;;8.78;88.93;102468.63;4949195;28;20023;-75
2023/04/08 09:23:47;;;;;;;17.55;11.90;;;;;;;8.79;88.13;102472.97;4950152;28;20122;-76
2023/04/08 09:26:31;;;;;;;18.02;11.80;;;;;;;8.80;87.99;102473.81;4948682;28;20891;-76
2023/04/08 09:29:06;;;;;;;16.55;10.68;;;;;;;8.80;87.61;102469.47;4949617;28;20291;-76
2023/04/08 09:31:40;;;;;;;18.33;11.50;;;;;;;8.85;88.41;102471.25;4948649;28;20098;-76
2023/04/08 09:34:24;;;;;;;17.42;12.10;;;;;;;8.97;87.56;102473.94;4952588;28;20114;-75
2023/04/08 09:36:51;;;;;;;16.52;11.38;;;;;;;9.08;87.38;102479.19;4944486;28;20061;-75
2023/04/08 09:39:16;;;;;;;16.60;11.40;;;;;;;9.17;86.24;102481.88;4943007;28;20032;-76
2023/04/08 09:41:42;;;;;;;16.35;11.15;;;;;;;9.22;85.78;102482.75;4941247;28;20094;-76
2023/04/08 09:44:10;;;;;;;17.25;11.15;;;;;;;9.26;86.15;102488.84;4946278;28;20085;-76
2023/04/08 09:46:44;;;;;;;17.00;11.80;;;;;;;9.32;86.35;102495.81;4943100;28;20033;-76
2023/04/08 09:49:12;;;;;;;18.30;11.73;;;;;;;9.34;85.24;102499.28;4945162;28;20402;-76
2023/04/08 09:52:08;;;;;;;17.77;11.55;;;;;;;9.35;85.79;102496.69;4943549;28;20431;-76
2023/04/08 09:54:52;;;;;;;18.40;11.95;;;;;;;9.29;85.26;102496.66;4941741;28;20233;-75
2023/04/08 09:57:43;;;;;;;18.15;11.18;;;;;;;9.33;86.02;102498.41;4943376;28;20031;-75
2023/04/08 10:00:16;;;;;;;16.35;11.77;;;;;;;9.37;85.07;102504.50;4945221;28;20027;-76
2023/04/08 10:03:06;;;;;;;16.30;11.63;;;;;;;9.40;84.92;102499.31;4943425;28;20030;-76
2023/04/08 10:05:39;;;;;;;18.48;12.50;;;;;;;9.38;84.95;102498.47;4946980;28;20121;-75
2023/04/08 10:08:06;;;;;;;18.13;12.45;;;;;;;9.45;85.15;102494.16;4944546;28;20035;-75
2023/04/08 10:10:33;;;;;;;17.80;12.25;;;;;;;9.55;84.08;102503.72;4944589;28;20117;-76
2023/04/08 10:12:59;;;;;;;18.33;12.60;;;;;;;9.61;83.19;102498.59;4941995;28;20736;-75
2023/04/08 10:15:26;;;;;;;18.67;12.70;;;;;;;9.66;82.83;102496.84;4946062;28;20548;-75
2023/04/08 10:18:13;;;;;;;17.75;12.60;;;;;;;9.82;84.90;102477.00;4947150;28;20027;-76
2023/04/08 10:20:38;;;;;;;17.85;12.23;;;;;;;9.93;82.73;102484.84;4939754;28;20055;-75
2023/04/08 10:23:08;;;;;;;17.60;12.15;;;;;;;9.94;81.74;102483.09;4943027;28;20386;-76
2023/04/08 10:25:37;;;;;;;19.40;13.38;;;;;;;9.93;82.44;102478.75;4946775;28;20386;-75
2023/04/08 10:28:16;;;;;;;18.08;13.07;;;;;;;9.88;81.75;102470.94;4943907;28;20114;-76
2023/04/08 10:30:52;;;;;;;19.23;12.93;;;;;;;9.86;81.72;102476.16;4941524;28;20092;-76
2023/04/08 10:33:29;;;;;;;18.92;13.38;;;;;;;9.94;82.43;102470.09;4942929;28;20087;-76
2023/04/08 10:36:01;;;;;;;19.30;13.55;;;;;;;9.98;80.79;102471.84;4941975;28;20041;-76
2023/04/08 10:38:27;;;;;;;20.10;13.55;;;;;;;9.96;80.80;102470.97;4929602;28;20034;-76
2023/04/08 10:40:53;;;;;;;20.70;14.73;;;;;;;9.90;80.37;102473.56;4937805;28;20027;-76
2023/04/08 10:43:18;;;;;;;20.38;14.00;;;;;;;9.80;79.79;102473.53;4943226;28;20123;-75
2023/04/08 10:45:45;;;;;;;21.08;15.00;;;;;;;9.72;79.78;102470.03;4941622;28;20060;-76
2023/04/08 10:48:30;;;;;;;20.10;13.82;;;;;;;9.71;81.58;102468.31;4939924;28;20019;-76
2023/04/08 10:50:58;;;;;;;19.92;13.82;;;;;;;9.71;80.57;102457.91;4941971;28;20035;-77
2023/04/08 10:53:50;;;;;;;19.13;13.43;;;;;;;9.82;82.09;102455.34;4943707;28;20034;-76
2023/04/08 10:56:17;;;;;;;18.05;12.68;;;;;;;9.86;80.34;102467.47;4943723;28;20050;-76
2023/04/08 10:58:56;;;;;;;21.48;14.27;;;;;;;9.80;79.82;102463.13;4943209;28;20034;-77
2023/04/08 11:01:21;;;;;;;18.88;13.13;;;;;;;9.78;80.04;102470.06;4942395;28;20478;-76
2023/04/08 11:03:48;;;;;;;21.83;13.98;;;;;;;9.82;79.85;102466.59;4941878;28;20046;-76
2023/04/08 11:06:13;;;;;;;18.33;13.13;;;;;;;9.88;80.17;102468.34;4941409;28;20042;-75
2023/04/08 11:08:40;;;;;;;20.05;14.48;;;;;;;9.93;79.69;102471.84;4944261;28;20035;-76
2023/04/08 11:11:07;;;;;;;18.60;13.75;;;;;;;9.96;80.11;102469.25;4943624;28;20027;-76
2023/04/08 11:13:35;;;;;;;19.55;13.65;;;;;;;10.04;80.00;102471.88;4940256;28;20058;-76
2023/04/08 11:16:01;;;;;;;21.88;15.07;;;;;;;10.14;79.10;102470.19;4944285;28;20035;-76
2023/04/08 11:18:27;;;;;;;20.45;14.10;;;;;;;10.23;80.38;102474.53;4946123;28;20439;-76
2023/04/08 11:20:53;;;;;;;20.15;14.25;;;;;;;10.24;78.04;102473.66;4944622;28;20059;-76
2023/04/08 11:23:19;;;;;;;19.98;14.85;;;;;;;10.26;78.54;102472.78;4942973;28;20110;-76